createdAt,value
2018-04-17T00:00:51.446Z,0.00
2018-04-17T00:01:51.443Z,0.00
2018-04-17T00:02:51.438Z,0.00
2018-04-17T00:03:51.446Z,0.00
2018-04-17T00:04:51.422Z,0.00
2018-04-17T00:05:51.428Z,0.00
2018-04-17T00:06:51.424Z,0.00
2018-04-17T00:07:51.412Z,0.00
2018-04-17T00:08:51.404Z,0.00
2018-04-17T00:09:51.405Z,0.00
2018-04-17T00:10:51.400Z,0.00
2018-04-17T00:11:51.386Z,0.00
2018-04-17T00:12:51.390Z,0.00
2018-04-17T00:13:51.385Z,0.00
2018-04-17T00:14:51.385Z,0.00
2018-04-17T00:15:51.370Z,0.00
2018-04-17T00:16:51.378Z,0.00
2018-04-17T00:17:51.363Z,0.00
2018-04-17T00:18:51.358Z,0.00
2018-04-17T00:19:51.361Z,0.00
2018-04-17T00:20:51.349Z,0.00
2018-04-17T00:21:51.336Z,0.00
2018-04-17T00:22:51.342Z,0.00
2018-04-17T00:23:51.335Z,0.00
2018-04-17T00:24:51.326Z,0.00
2018-04-17T00:25:51.341Z,0.00
2018-04-17T00:26:51.318Z,0.00
2018-04-17T00:27:51.309Z,0.00
2018-04-17T00:28:51.308Z,0.00
2018-04-17T00:29:51.292Z,0.00
2018-04-17T00:30:51.294Z,0.00
2018-04-17T00:31:51.294Z,0.00
2018-04-17T00:32:51.284Z,0.00
2018-04-17T00:33:51.317Z,0.00
2018-04-17T00:34:51.279Z,0.00
2018-04-17T00:35:51.268Z,0.00
2018-04-17T00:36:51.265Z,0.00
2018-04-17T00:37:51.256Z,0.00
2018-04-17T00:38:51.250Z,0.00
2018-04-17T00:39:51.244Z,0.00
2018-04-17T00:40:51.248Z,0.00
2018-04-17T00:41:51.241Z,0.00
2018-04-17T00:42:51.261Z,0.00
2018-04-17T00:43:51.228Z,0.00
2018-04-17T00:44:51.229Z,0.00
2018-04-17T00:45:51.219Z,0.00
2018-04-17T00:46:51.219Z,0.00
2018-04-17T00:47:51.206Z,0.00
2018-04-17T00:48:51.203Z,0.00
2018-04-17T00:49:51.214Z,0.00
2018-04-17T00:50:51.190Z,0.00
2018-04-17T00:51:51.192Z,0.00
2018-04-17T00:52:51.183Z,0.00
2018-04-17T00:53:51.185Z,0.00
2018-04-17T00:54:51.174Z,0.00
2018-04-17T00:55:51.173Z,0.00
2018-04-17T00:56:51.203Z,0.00
2018-04-17T00:57:51.157Z,0.00
2018-04-17T00:58:51.155Z,0.00
2018-04-17T00:59:51.174Z,0.00
2018-04-17T01:00:51.168Z,0.00
2018-04-17T01:01:51.137Z,0.00
2018-04-17T01:02:51.128Z,0.00
2018-04-17T01:03:51.135Z,0.00
2018-04-17T01:04:51.109Z,0.00
2018-04-17T01:05:51.115Z,0.00
2018-04-17T01:06:51.117Z,0.00
2018-04-17T01:07:51.130Z,0.00
2018-04-17T01:08:51.100Z,0.00
2018-04-17T01:09:51.104Z,0.00
2018-04-17T01:10:51.092Z,0.00
2018-04-17T01:11:51.073Z,0.00
2018-04-17T01:12:51.070Z,0.00
2018-04-17T01:13:51.075Z,0.00
2018-04-17T01:14:51.075Z,0.00
2018-04-17T01:15:51.080Z,0.00
2018-04-17T01:16:51.062Z,0.00
2018-04-17T01:17:51.052Z,0.00
2018-04-17T01:18:51.034Z,0.00
2018-04-17T01:19:51.047Z,0.00
2018-04-17T01:20:51.045Z,0.00
2018-04-17T01:21:51.019Z,0.00
2018-04-17T01:22:51.025Z,0.00
2018-04-17T01:23:51.019Z,0.00
2018-04-17T01:24:50.996Z,0.00
2018-04-17T01:25:51.006Z,0.00
2018-04-17T01:26:50.990Z,0.00
2018-04-17T01:27:50.981Z,0.00
2018-04-17T01:28:50.999Z,0.00
2018-04-17T01:29:50.974Z,0.00
2018-04-17T02:02:10.713Z,0.00
2018-04-17T02:03:10.612Z,0.00
2018-04-17T02:05:03.506Z,0.00
2018-04-17T02:06:03.470Z,0.00
2018-04-17T02:07:56.385Z,0.00
2018-04-17T02:08:56.353Z,0.00
2018-04-17T02:10:49.242Z,0.00
2018-04-17T02:11:49.233Z,0.00
2018-04-17T02:13:42.169Z,0.00
2018-04-17T02:14:42.134Z,0.00
2018-04-17T02:16:35.040Z,0.00
2018-04-17T02:17:34.999Z,0.00
2018-04-17T02:19:27.981Z,0.00
2018-04-17T02:20:27.945Z,0.00
2018-04-17T02:22:20.893Z,0.00
2018-04-17T02:23:20.818Z,0.00
2018-04-17T02:25:13.718Z,0.00
2018-04-17T02:26:13.721Z,0.00
2018-04-17T02:28:06.640Z,0.00
2018-04-17T02:29:06.609Z,0.00
2018-04-17T02:31:50.573Z,0.00
2018-04-17T02:32:50.541Z,0.00
2018-04-17T02:34:43.516Z,0.00
2018-04-17T02:35:43.417Z,0.00
2018-04-17T02:37:36.328Z,0.00
2018-04-17T02:38:36.308Z,0.00
2018-04-17T02:39:36.289Z,0.00
2018-04-17T02:40:36.294Z,0.00
2018-04-17T02:41:36.281Z,0.00
2018-04-17T02:42:36.284Z,0.00
2018-04-17T02:43:36.271Z,0.00
2018-04-17T02:44:36.277Z,0.00
2018-04-17T02:45:36.254Z,0.00
2018-04-17T02:46:36.265Z,0.00
2018-04-17T02:47:36.259Z,0.00
2018-04-17T02:48:36.238Z,0.00
2018-04-17T02:49:36.244Z,0.00
2018-04-17T02:50:36.241Z,0.00
2018-04-17T02:51:36.221Z,0.00
2018-04-17T02:52:36.219Z,0.00
2018-04-17T02:53:36.200Z,0.00
2018-04-17T02:54:36.199Z,0.00
2018-04-17T02:55:36.194Z,0.00
2018-04-17T02:56:36.199Z,0.00
2018-04-17T02:57:36.199Z,0.00
2018-04-17T02:58:36.181Z,0.00
2018-04-17T02:59:36.162Z,0.00
2018-04-17T03:00:36.159Z,0.00
2018-04-17T03:01:36.155Z,0.00
2018-04-17T03:02:36.162Z,0.00
2018-04-17T03:03:36.146Z,0.00
2018-04-17T03:04:36.136Z,0.00
2018-04-17T03:05:36.129Z,0.00
2018-04-17T03:06:36.120Z,0.00
2018-04-17T03:07:36.120Z,0.00
2018-04-17T03:08:36.114Z,0.00
2018-04-17T03:09:36.100Z,0.00
2018-04-17T03:10:36.114Z,0.00
2018-04-17T03:11:36.092Z,0.00
2018-04-17T03:12:36.078Z,0.00
2018-04-17T03:13:36.094Z,0.00
2018-04-17T03:14:36.066Z,0.00
2018-04-17T03:15:36.065Z,0.00
2018-04-17T03:16:36.057Z,0.00
2018-04-17T03:17:36.050Z,0.00
2018-04-17T03:18:36.038Z,0.00
2018-04-17T03:19:36.032Z,0.00
2018-04-17T03:20:36.034Z,0.00
2018-04-17T03:21:36.040Z,0.00
2018-04-17T03:22:36.023Z,0.00
2018-04-17T03:23:36.021Z,0.00
2018-04-17T03:24:36.003Z,0.00
2018-04-17T03:25:35.989Z,0.00
2018-04-17T03:26:35.988Z,0.00
2018-04-17T03:27:35.985Z,0.00
2018-04-17T03:28:35.988Z,0.00
2018-04-17T03:29:35.969Z,0.00
2018-04-17T03:30:35.965Z,0.00
2018-04-17T03:31:35.953Z,0.00
2018-04-17T03:32:35.945Z,0.00
2018-04-17T03:33:35.939Z,0.00
2018-04-17T03:34:35.934Z,0.00
2018-04-17T03:35:35.932Z,0.00
2018-04-17T03:36:35.937Z,0.00
2018-04-17T03:37:35.920Z,0.00
2018-04-17T03:38:35.912Z,0.00
2018-04-17T03:39:35.904Z,0.00
2018-04-17T03:40:35.895Z,0.00
2018-04-17T03:41:35.879Z,0.00
2018-04-17T03:42:35.892Z,0.00
2018-04-17T03:43:35.867Z,0.00
2018-04-17T03:44:35.864Z,0.00
2018-04-17T03:45:35.873Z,0.00
2018-04-17T03:46:35.854Z,0.00
2018-04-17T03:47:35.851Z,0.00
2018-04-17T03:48:35.848Z,0.00
2018-04-17T03:49:35.826Z,0.00
2018-04-17T03:50:35.824Z,0.00
2018-04-17T03:51:35.835Z,0.00
2018-04-17T03:52:35.818Z,0.00
2018-04-17T03:53:35.812Z,0.00
2018-04-17T03:54:35.809Z,0.00
2018-04-17T03:55:35.795Z,0.00
2018-04-17T03:56:35.804Z,0.00
2018-04-17T03:57:35.787Z,0.00
2018-04-17T03:58:35.776Z,0.00
2018-04-17T03:59:35.761Z,0.00
2018-04-17T04:00:35.768Z,0.00
2018-04-17T04:01:35.756Z,0.00
2018-04-17T04:02:35.748Z,0.00
2018-04-17T04:03:35.743Z,0.00
2018-04-17T04:04:35.737Z,0.00
2018-04-17T04:05:35.720Z,0.00
2018-04-17T04:06:35.729Z,0.00
2018-04-17T04:07:35.708Z,0.00
2018-04-17T04:08:35.720Z,0.00
2018-04-17T04:09:35.705Z,0.00
2018-04-17T04:10:35.695Z,0.00
2018-04-17T04:11:35.684Z,0.00
2018-04-17T04:12:35.673Z,0.00
2018-04-17T04:13:35.677Z,0.00
2018-04-17T04:14:35.666Z,0.00
2018-04-17T04:15:35.649Z,0.00
2018-04-17T04:16:35.663Z,0.00
2018-04-17T04:17:35.642Z,0.00
2018-04-17T04:18:35.633Z,0.00
2018-04-17T04:19:35.626Z,5.63
2018-04-17T04:20:35.623Z,5.63
2018-04-17T04:21:35.615Z,5.63
2018-04-17T04:22:35.607Z,5.63
2018-04-17T04:23:35.610Z,5.63
2018-04-17T04:24:35.593Z,11.25
2018-04-17T04:25:35.594Z,11.25
2018-04-17T04:26:35.584Z,11.25
2018-04-17T04:27:35.568Z,11.25
2018-04-17T04:28:35.566Z,16.88
2018-04-17T04:29:35.567Z,16.88
2018-04-17T04:30:35.564Z,16.88
2018-04-17T04:31:35.573Z,22.50
2018-04-17T04:32:35.548Z,22.50
2018-04-17T04:33:35.538Z,22.50
2018-04-17T04:34:35.540Z,28.13
2018-04-17T04:35:35.518Z,28.13
2018-04-17T04:36:35.514Z,33.75
2018-04-17T04:37:35.508Z,33.75
2018-04-17T04:38:35.500Z,39.38
2018-04-17T04:39:35.492Z,39.38
2018-04-17T04:40:35.488Z,45.00
2018-04-17T04:41:35.478Z,45.00
2018-04-17T04:42:35.470Z,50.63
2018-04-17T04:43:35.468Z,50.63
2018-04-17T04:44:35.455Z,56.25
2018-04-17T04:45:35.451Z,61.88
2018-04-17T04:46:35.430Z,61.88
2018-04-17T04:47:35.434Z,67.50
2018-04-17T04:48:35.435Z,67.50
2018-04-17T04:49:35.443Z,73.13
2018-04-17T04:50:35.411Z,78.75
2018-04-17T04:51:35.410Z,78.75
2018-04-17T04:52:35.397Z,84.38
2018-04-17T04:53:35.394Z,84.38
2018-04-17T04:54:35.392Z,90.00
2018-04-17T04:55:35.371Z,95.63
2018-04-17T04:56:35.394Z,101.25
2018-04-17T04:57:35.371Z,106.88
2018-04-17T04:58:35.358Z,112.50
2018-04-17T04:59:35.371Z,112.50
2018-04-17T05:00:35.342Z,112.50
2018-04-17T05:01:35.347Z,118.13
2018-04-17T05:02:35.335Z,123.75
2018-04-17T05:03:35.327Z,129.38
2018-04-17T05:04:35.315Z,135.00
2018-04-17T05:05:35.318Z,140.63
2018-04-17T05:06:35.319Z,140.63
2018-04-17T05:07:35.296Z,146.25
2018-04-17T05:08:35.296Z,151.88
2018-04-17T05:09:35.287Z,157.50
2018-04-17T05:10:35.283Z,163.13
2018-04-17T05:11:35.278Z,168.75
2018-04-17T05:12:35.265Z,168.75
2018-04-17T05:13:35.261Z,174.38
2018-04-17T05:14:35.277Z,180.00
2018-04-17T05:15:35.241Z,185.63
2018-04-17T05:16:35.254Z,191.25
2018-04-17T05:17:35.242Z,191.25
2018-04-17T05:18:35.232Z,196.88
2018-04-17T05:19:35.246Z,202.50
2018-04-17T05:20:35.228Z,208.13
2018-04-17T05:21:35.219Z,213.75
2018-04-17T05:22:35.209Z,213.75
2018-04-17T05:23:35.223Z,219.38
2018-04-17T05:24:35.221Z,219.38
2018-04-17T05:25:35.209Z,225.00
2018-04-17T05:26:35.186Z,230.63
2018-04-17T05:27:35.180Z,236.25
2018-04-17T05:28:35.182Z,236.25
2018-04-17T05:29:35.168Z,241.88
2018-04-17T05:30:35.166Z,247.50
2018-04-17T05:31:35.177Z,247.50
2018-04-17T05:32:35.147Z,253.13
2018-04-17T05:33:35.159Z,258.75
2018-04-17T05:34:35.139Z,264.38
2018-04-17T05:35:35.137Z,264.38
2018-04-17T05:36:35.130Z,270.00
2018-04-17T05:37:35.121Z,275.63
2018-04-17T05:38:35.124Z,281.25
2018-04-17T05:39:35.130Z,281.25
2018-04-17T05:40:35.119Z,292.50
2018-04-17T05:41:35.111Z,292.50
2018-04-17T05:42:35.134Z,298.13
2018-04-17T05:43:35.103Z,303.75
2018-04-17T05:44:35.087Z,303.75
2018-04-17T05:45:35.085Z,309.38
2018-04-17T05:46:35.083Z,309.38
2018-04-17T05:47:35.078Z,315.00
2018-04-17T05:48:35.078Z,320.63
2018-04-17T05:49:35.067Z,326.25
2018-04-17T05:50:35.065Z,331.88
2018-04-17T05:51:35.066Z,337.50
2018-04-17T05:52:35.064Z,343.13
2018-04-17T05:53:35.041Z,348.75
2018-04-17T05:54:35.048Z,348.75
2018-04-17T05:55:35.038Z,354.38
2018-04-17T05:56:35.045Z,360.00
2018-04-17T05:57:35.075Z,365.63
2018-04-17T05:58:35.024Z,371.25
2018-04-17T05:59:35.021Z,371.25
2018-04-17T06:00:35.016Z,376.88
2018-04-17T06:01:34.999Z,382.50
2018-04-17T06:02:35.006Z,388.13
2018-04-17T06:03:35.014Z,388.13
2018-04-17T06:04:34.996Z,393.75
2018-04-17T06:05:34.994Z,393.75
2018-04-17T06:06:35.000Z,399.38
2018-04-17T06:07:34.986Z,405.00
2018-04-17T06:08:34.975Z,410.63
2018-04-17T06:09:34.969Z,416.25
2018-04-17T06:10:34.977Z,421.88
2018-04-17T06:11:34.976Z,427.50
2018-04-17T06:12:34.968Z,433.13
2018-04-17T06:13:34.957Z,438.75
2018-04-17T06:14:34.957Z,444.38
2018-04-17T06:15:34.966Z,450.00
2018-04-17T06:16:34.942Z,450.00
2018-04-17T06:17:34.969Z,455.63
2018-04-17T06:18:34.934Z,461.25
2018-04-17T06:19:34.933Z,466.88
2018-04-17T06:20:34.939Z,472.50
2018-04-17T06:21:34.928Z,472.50
2018-04-17T06:22:34.938Z,478.13
2018-04-17T06:23:34.922Z,483.75
2018-04-17T06:24:34.924Z,489.38
2018-04-17T06:25:34.938Z,495.00
2018-04-17T06:26:34.902Z,500.63
2018-04-17T06:27:34.899Z,500.63
2018-04-17T06:28:34.905Z,517.50
2018-04-17T06:29:34.899Z,511.88
2018-04-17T06:30:34.893Z,511.88
2018-04-17T06:31:34.888Z,517.50
2018-04-17T06:32:34.880Z,523.13
2018-04-17T06:33:34.884Z,523.13
2018-04-17T06:34:34.897Z,528.75
2018-04-17T06:35:34.878Z,534.38
2018-04-17T06:36:34.899Z,540.00
2018-04-17T06:37:34.868Z,540.00
2018-04-17T06:38:34.872Z,545.63
2018-04-17T06:39:34.874Z,545.63
2018-04-17T06:40:34.866Z,551.25
2018-04-17T06:41:34.863Z,556.88
2018-04-17T06:42:34.864Z,556.88
2018-04-17T06:43:34.859Z,562.50
2018-04-17T06:44:34.848Z,568.13
2018-04-17T06:45:34.860Z,568.13
2018-04-17T06:46:34.867Z,573.75
2018-04-17T06:47:34.895Z,579.38
2018-04-17T06:48:34.842Z,579.38
2018-04-17T06:49:34.850Z,579.38
2018-04-17T06:50:34.840Z,585.00
2018-04-17T06:51:34.853Z,585.00
2018-04-17T06:52:34.837Z,590.63
2018-04-17T06:53:34.837Z,601.88
2018-04-17T06:54:34.831Z,601.88
2018-04-17T06:55:34.825Z,607.50
2018-04-17T06:56:34.831Z,607.50
2018-04-17T06:57:34.831Z,613.13
2018-04-17T06:58:34.867Z,618.75
2018-04-17T06:59:34.819Z,618.75
2018-04-17T07:00:34.809Z,624.38
2018-04-17T07:01:34.832Z,624.38
2018-04-17T07:02:34.801Z,635.63
2018-04-17T07:03:34.816Z,630.00
2018-04-17T07:04:34.811Z,630.00
2018-04-17T07:05:34.800Z,635.63
2018-04-17T07:06:34.807Z,635.63
2018-04-17T07:07:34.804Z,635.63
2018-04-17T07:08:34.810Z,641.25
2018-04-17T07:09:34.808Z,641.25
2018-04-17T07:10:34.792Z,646.88
2018-04-17T07:11:34.867Z,646.88
2018-04-17T07:12:34.801Z,646.88
2018-04-17T07:13:34.795Z,652.50
2018-04-17T07:14:34.789Z,652.50
2018-04-17T07:15:34.797Z,652.50
2018-04-17T07:16:34.791Z,652.50
2018-04-17T07:17:34.794Z,658.13
2018-04-17T07:18:34.798Z,658.13
2018-04-17T07:19:34.788Z,658.13
2018-04-17T07:20:34.784Z,663.75
2018-04-17T07:21:34.785Z,675.00
2018-04-17T07:22:34.799Z,703.13
2018-04-17T07:23:34.801Z,736.88
2018-04-17T07:24:34.800Z,916.88
2018-04-17T07:25:34.779Z,1665.00
2018-04-17T07:26:34.766Z,2205.00
2018-04-17T07:27:34.793Z,2171.25
2018-04-17T07:28:34.777Z,2199.38
2018-04-17T07:29:34.770Z,2221.88
2018-04-17T07:30:34.779Z,2295.00
2018-04-17T07:31:34.785Z,2171.25
2018-04-17T07:32:34.779Z,2176.88
2018-04-17T07:33:34.780Z,2300.63
2018-04-17T07:34:34.828Z,2283.75
2018-04-17T07:35:34.795Z,2340.00
2018-04-17T07:36:34.805Z,2261.25
2018-04-17T07:37:34.808Z,2199.38
2018-04-17T07:38:34.810Z,2283.75
2018-04-17T07:39:34.817Z,2385.00
2018-04-17T07:40:34.891Z,2362.50
2018-04-17T07:41:34.828Z,2289.38
2018-04-17T07:42:34.840Z,2295.00
2018-04-17T07:43:34.847Z,2368.13
2018-04-17T07:44:34.854Z,2430.00
2018-04-17T07:45:34.882Z,2407.50
2018-04-17T07:46:34.880Z,2300.63
2018-04-17T07:47:34.893Z,2351.25
2018-04-17T07:48:34.891Z,2480.63
2018-04-17T07:49:34.910Z,2452.50
2018-04-17T07:50:34.912Z,2390.63
2018-04-17T07:51:34.919Z,2441.25
2018-04-17T07:52:34.945Z,2407.50
2018-04-17T07:53:34.939Z,2503.13
2018-04-17T07:54:34.947Z,2565.00
2018-04-17T07:55:34.964Z,2503.13
2018-04-17T07:56:34.971Z,2452.50
2018-04-17T07:57:35.029Z,2486.25
2018-04-17T07:58:34.992Z,2418.75
2018-04-17T07:59:35.008Z,2520.00
2018-04-17T08:00:35.022Z,2469.38
2018-04-17T08:01:35.033Z,2311.88
2018-04-17T08:02:35.064Z,2295.00
2018-04-17T08:03:35.079Z,2441.25
2018-04-17T08:04:35.080Z,2486.25
2018-04-17T08:05:35.089Z,2362.50
2018-04-17T08:06:35.095Z,2413.13
2018-04-17T08:07:35.102Z,2531.25
2018-04-17T08:08:35.120Z,2413.13
2018-04-17T08:09:35.126Z,2514.38
2018-04-17T08:10:35.131Z,2503.13
2018-04-17T08:11:35.163Z,2514.38
2018-04-17T08:12:35.169Z,2514.38
2018-04-17T08:13:35.180Z,2536.88
2018-04-17T08:14:35.189Z,2520.00
2018-04-17T08:15:35.201Z,2610.00
2018-04-17T08:16:35.214Z,2677.50
2018-04-17T08:17:35.287Z,2745.00
2018-04-17T08:18:35.264Z,2660.63
2018-04-17T08:19:35.254Z,2503.13
2018-04-17T08:20:35.287Z,2581.88
2018-04-17T08:21:35.289Z,2593.13
2018-04-17T08:22:35.302Z,2604.38
2018-04-17T08:23:35.319Z,2632.50
2018-04-17T08:24:35.327Z,2581.88
2018-04-17T08:25:35.337Z,2520.00
2018-04-17T08:26:35.345Z,2615.63
2018-04-17T08:27:35.375Z,2626.88
2018-04-17T08:28:35.384Z,2598.75
2018-04-17T08:29:35.412Z,2688.75
2018-04-17T08:30:35.457Z,2621.25
2018-04-17T08:31:35.434Z,2626.88
2018-04-17T08:32:35.443Z,2655.00
2018-04-17T08:33:35.472Z,2548.13
2018-04-17T08:34:35.470Z,2688.75
2018-04-17T08:35:35.492Z,2829.38
2018-04-17T08:36:35.534Z,2733.75
2018-04-17T08:37:35.512Z,2621.25
2018-04-17T08:38:35.538Z,2626.88
2018-04-17T08:39:35.572Z,2542.50
2018-04-17T08:40:35.558Z,2435.63
2018-04-17T08:41:35.580Z,2559.38
2018-04-17T08:42:35.592Z,2694.38
2018-04-17T08:43:35.605Z,2722.50
2018-04-17T08:44:35.626Z,2683.13
2018-04-17T08:45:35.633Z,2655.00
2018-04-17T08:46:35.665Z,2694.38
2018-04-17T08:47:35.699Z,2581.88
2018-04-17T08:48:35.696Z,2565.00
2018-04-17T08:49:35.717Z,2700.00
2018-04-17T08:50:35.707Z,2722.50
2018-04-17T08:51:35.734Z,2660.63
2018-04-17T08:52:35.740Z,2649.38
2018-04-17T08:53:35.750Z,2688.75
2018-04-17T08:54:35.765Z,2581.88
2018-04-17T08:55:35.782Z,2480.63
2018-04-17T08:56:35.805Z,2441.25
2018-04-17T08:57:35.816Z,2424.38
2018-04-17T08:58:35.831Z,2491.88
2018-04-17T08:59:35.881Z,2486.25
2018-04-17T09:00:35.864Z,2508.75
2018-04-17T09:01:35.876Z,2598.75
2018-04-17T09:02:35.892Z,2475.00
2018-04-17T09:03:35.908Z,2469.38
2018-04-17T09:04:35.922Z,2413.13
2018-04-17T09:05:35.930Z,2390.63
2018-04-17T09:06:35.951Z,2486.25
2018-04-17T09:07:35.969Z,2570.63
2018-04-17T09:08:35.984Z,2829.38
2018-04-17T09:09:35.999Z,3031.88
2018-04-17T09:10:36.028Z,3009.38
2018-04-17T09:11:36.036Z,2953.13
2018-04-17T09:12:36.043Z,3048.75
2018-04-17T09:13:36.072Z,2851.88
2018-04-17T09:14:36.109Z,2593.13
2018-04-17T09:15:36.108Z,2581.88
2018-04-17T09:16:36.108Z,2503.13
2018-04-17T09:17:36.123Z,2570.63
2018-04-17T09:18:36.150Z,2643.75
2018-04-17T09:19:36.184Z,2671.88
2018-04-17T09:20:36.177Z,2705.63
2018-04-17T09:21:36.200Z,2655.00
2018-04-17T09:22:36.222Z,2750.63
2018-04-17T09:23:36.256Z,2705.63
2018-04-17T09:24:36.274Z,2750.63
2018-04-17T09:25:36.267Z,2739.38
2018-04-17T09:26:36.283Z,2694.38
2018-04-17T09:27:36.382Z,2638.13
2018-04-17T09:28:36.319Z,2677.50
2018-04-17T09:29:36.344Z,2632.50
2018-04-17T09:30:36.370Z,2733.75
2018-04-17T09:31:36.388Z,2806.88
2018-04-17T09:32:36.397Z,2773.13
2018-04-17T09:33:36.417Z,2812.50
2018-04-17T09:34:36.429Z,2767.50
2018-04-17T09:35:36.451Z,2795.63
2018-04-17T09:36:36.479Z,2840.63
2018-04-17T09:37:36.481Z,2688.75
2018-04-17T09:38:36.503Z,2632.50
2018-04-17T09:39:36.509Z,2745.00
2018-04-17T09:40:36.537Z,2638.13
2018-04-17T09:41:36.552Z,2396.25
2018-04-17T09:42:36.568Z,2598.75
2018-04-17T09:43:36.583Z,2694.38
2018-04-17T09:44:36.628Z,2728.13
2018-04-17T09:45:36.626Z,2761.88
2018-04-17T09:46:36.633Z,2896.88
2018-04-17T09:47:36.655Z,2851.88
2018-04-17T09:48:36.682Z,2851.88
2018-04-17T09:49:36.699Z,2840.63
2018-04-17T09:50:36.735Z,2851.88
2018-04-17T09:51:36.721Z,2812.50
2018-04-17T09:52:36.744Z,2806.88
2018-04-17T09:53:36.762Z,2913.75
2018-04-17T09:54:36.787Z,2795.63
2018-04-17T09:55:36.801Z,2801.25
2018-04-17T09:56:36.816Z,2767.50
2018-04-17T09:57:36.920Z,2733.75
2018-04-17T09:58:36.870Z,2930.63
2018-04-17T09:59:36.874Z,2925.00
2018-04-17T10:00:36.889Z,2851.88
2018-04-17T10:01:36.902Z,2891.25
2018-04-17T10:02:36.916Z,2857.50
2018-04-17T10:03:36.967Z,2941.88
2018-04-17T10:04:36.964Z,2964.38
2018-04-17T10:05:36.976Z,2941.88
2018-04-17T10:06:36.985Z,2840.63
2018-04-17T10:07:37.019Z,2840.63
2018-04-17T10:08:37.047Z,2958.75
2018-04-17T10:09:37.045Z,2896.88
2018-04-17T10:10:37.063Z,2936.25
2018-04-17T10:11:37.078Z,3127.50
2018-04-17T10:12:37.100Z,3150.00
2018-04-17T10:13:37.119Z,3155.63
2018-04-17T10:14:37.136Z,3228.75
2018-04-17T10:15:37.146Z,3105.00
2018-04-17T10:16:37.187Z,1507.50
2018-04-17T10:17:37.197Z,3060.00
2018-04-17T10:18:37.206Z,3150.00
2018-04-17T10:19:37.229Z,3161.25
2018-04-17T10:20:37.238Z,2981.25
2018-04-17T10:21:37.258Z,2953.13
2018-04-17T10:22:37.295Z,3099.38
2018-04-17T10:23:37.298Z,3127.50
2018-04-17T10:24:37.348Z,2958.75
2018-04-17T10:25:37.327Z,3060.00
2018-04-17T10:26:37.347Z,3110.63
2018-04-17T10:27:37.375Z,3071.25
2018-04-17T10:28:37.379Z,3088.13
2018-04-17T10:29:37.395Z,3217.50
2018-04-17T10:30:37.484Z,3391.88
2018-04-17T10:31:37.446Z,3386.25
2018-04-17T10:32:37.447Z,3465.00
2018-04-17T10:33:37.469Z,3628.13
2018-04-17T10:34:37.496Z,3442.50
2018-04-17T10:35:37.529Z,3301.88
2018-04-17T10:36:37.527Z,3487.50
2018-04-17T10:37:37.543Z,3290.63
2018-04-17T10:38:37.553Z,3144.38
2018-04-17T10:39:37.576Z,3217.50
2018-04-17T10:40:37.603Z,3015.00
2018-04-17T10:41:37.626Z,3060.00
2018-04-17T10:42:37.640Z,3048.75
2018-04-17T10:43:37.648Z,3037.50
2018-04-17T10:44:37.670Z,1710.00
2018-04-17T10:45:37.690Z,3189.38
2018-04-17T10:46:37.720Z,3155.63
2018-04-17T10:47:37.727Z,3133.13
2018-04-17T10:48:37.750Z,883.13
2018-04-17T10:49:37.778Z,3251.25
2018-04-17T10:50:37.774Z,3082.50
2018-04-17T10:51:37.801Z,3127.50
2018-04-17T10:52:37.810Z,3144.38
2018-04-17T10:53:37.834Z,3166.88
2018-04-17T10:54:37.859Z,3285.00
2018-04-17T10:55:37.863Z,2790.00
2018-04-17T10:56:37.886Z,2531.25
2018-04-17T10:57:37.920Z,770.63
2018-04-17T10:58:37.930Z,731.25
2018-04-17T10:59:37.941Z,731.25
2018-04-17T11:00:37.942Z,810.00
2018-04-17T11:01:38.042Z,3335.63
2018-04-17T11:02:38.002Z,3228.75
2018-04-17T11:03:37.988Z,3127.50
2018-04-17T11:04:37.996Z,3183.75
2018-04-17T11:05:38.033Z,3369.38
2018-04-17T11:06:38.033Z,3296.25
2018-04-17T11:07:38.046Z,3223.13
2018-04-17T11:08:38.066Z,3352.50
2018-04-17T11:09:38.077Z,3403.13
2018-04-17T11:10:38.107Z,3645.00
2018-04-17T11:11:38.113Z,3515.63
2018-04-17T11:12:38.114Z,826.88
2018-04-17T11:13:38.140Z,1597.50
2018-04-17T11:14:38.139Z,3245.63
2018-04-17T11:15:38.152Z,3313.13
2018-04-17T11:16:38.180Z,2790.00
2018-04-17T11:17:38.201Z,1721.25
2018-04-17T11:18:38.205Z,894.38
2018-04-17T11:19:38.218Z,798.75
2018-04-17T11:20:38.224Z,793.13
2018-04-17T11:21:38.239Z,759.38
2018-04-17T11:22:38.279Z,725.63
2018-04-17T11:23:38.292Z,804.38
2018-04-17T11:24:38.290Z,826.88
2018-04-17T11:25:38.287Z,2913.75
2018-04-17T11:26:38.314Z,3161.25
2018-04-17T11:27:38.301Z,3279.38
2018-04-17T11:28:38.327Z,3273.75
2018-04-17T11:29:38.333Z,3211.88
2018-04-17T11:30:38.337Z,3296.25
2018-04-17T11:31:38.363Z,3408.75
2018-04-17T11:32:38.404Z,3330.00
2018-04-17T11:33:38.390Z,3448.13
2018-04-17T11:34:38.423Z,2497.50
2018-04-17T11:35:38.409Z,2823.75
2018-04-17T11:36:38.420Z,1006.88
2018-04-17T11:37:38.437Z,933.75
2018-04-17T11:38:38.454Z,905.63
2018-04-17T11:39:38.468Z,877.50
2018-04-17T11:40:38.470Z,866.25
2018-04-17T11:41:38.476Z,916.88
2018-04-17T11:42:38.490Z,2733.75
2018-04-17T11:43:38.505Z,2902.50
2018-04-17T11:44:38.524Z,2857.50
2018-04-17T11:45:38.525Z,2818.13
2018-04-17T11:46:38.527Z,2868.75
2018-04-17T11:47:38.543Z,2863.13
2018-04-17T11:48:38.593Z,2941.88
2018-04-17T11:49:38.561Z,2677.50
2018-04-17T11:50:38.581Z,2677.50
2018-04-17T11:51:38.583Z,2863.13
2018-04-17T11:52:38.596Z,2908.13
2018-04-17T11:53:38.607Z,2947.50
2018-04-17T11:54:38.623Z,967.50
2018-04-17T11:55:38.628Z,2913.75
2018-04-17T11:56:38.638Z,2694.38
2018-04-17T11:57:38.661Z,2086.88
2018-04-17T11:58:38.674Z,2863.13
2018-04-17T11:59:38.697Z,2188.13
2018-04-17T12:00:38.712Z,3037.50
2018-04-17T12:01:38.738Z,2835.00
2018-04-17T12:02:38.733Z,3020.63
2018-04-17T12:03:38.743Z,3088.13
2018-04-17T12:04:38.763Z,3093.75
2018-04-17T12:05:38.777Z,1051.88
2018-04-17T12:06:38.787Z,1344.38
2018-04-17T12:07:38.807Z,2908.13
2018-04-17T12:08:38.822Z,708.75
2018-04-17T12:09:38.833Z,753.75
2018-04-17T12:10:38.859Z,1518.75
2018-04-17T12:11:38.844Z,1957.50
2018-04-17T12:12:38.893Z,2846.25
2018-04-17T12:13:38.876Z,2880.00
2018-04-17T12:14:38.938Z,2851.88
2018-04-17T12:15:38.893Z,2829.38
2018-04-17T12:16:38.911Z,2778.75
2018-04-17T12:17:38.926Z,2733.75
2018-04-17T12:18:38.932Z,2666.25
2018-04-17T12:19:38.950Z,2716.88
2018-04-17T12:20:38.958Z,2733.75
2018-04-17T12:21:38.965Z,2761.88
2018-04-17T12:22:38.998Z,2722.50
2018-04-17T12:23:38.984Z,2626.88
2018-04-17T12:24:39.004Z,2536.88
2018-04-17T12:25:39.011Z,1575.00
2018-04-17T12:26:39.026Z,686.25
2018-04-17T12:27:39.060Z,585.00
2018-04-17T12:28:39.065Z,551.25
2018-04-17T12:29:39.071Z,495.00
2018-04-17T12:30:39.076Z,523.13
2018-04-17T12:31:39.087Z,523.13
2018-04-17T12:32:39.097Z,489.38
2018-04-17T12:33:39.104Z,506.25
2018-04-17T12:34:39.191Z,506.25
2018-04-17T12:35:39.125Z,506.25
2018-04-17T12:36:39.131Z,517.50
2018-04-17T12:37:39.139Z,534.38
2018-04-17T12:38:39.144Z,562.50
2018-04-17T12:39:39.150Z,596.25
2018-04-17T12:40:39.153Z,630.00
2018-04-17T12:41:39.185Z,646.88
2018-04-17T12:42:39.164Z,663.75
2018-04-17T12:43:39.169Z,675.00
2018-04-17T12:44:39.184Z,691.88
2018-04-17T12:45:39.180Z,731.25
2018-04-17T12:46:39.201Z,759.38
2018-04-17T12:47:39.202Z,765.00
2018-04-17T12:48:39.204Z,697.50
2018-04-17T12:49:39.200Z,573.75
2018-04-17T12:50:39.197Z,495.00
2018-04-17T12:51:39.207Z,455.63
2018-04-17T12:52:39.204Z,483.75
2018-04-17T12:53:39.220Z,483.75
2018-04-17T12:54:39.235Z,489.38
2018-04-17T12:55:39.233Z,495.00
2018-04-17T12:56:39.238Z,511.88
2018-04-17T12:57:39.244Z,517.50
2018-04-17T12:58:39.229Z,523.13
2018-04-17T12:59:39.241Z,534.38
2018-04-17T13:00:39.241Z,545.63
2018-04-17T13:01:39.236Z,551.25
2018-04-17T13:02:39.243Z,556.88
2018-04-17T13:03:39.237Z,551.25
2018-04-17T13:04:39.241Z,528.75
2018-04-17T13:05:39.261Z,528.75
2018-04-17T13:06:39.254Z,511.88
2018-04-17T13:07:39.307Z,500.63
2018-04-17T13:08:39.281Z,500.63
2018-04-17T13:09:39.272Z,506.25
2018-04-17T13:10:39.257Z,511.88
2018-04-17T13:11:39.263Z,511.88
2018-04-17T13:12:39.278Z,523.13
2018-04-17T13:13:39.271Z,528.75
2018-04-17T13:14:39.265Z,523.13
2018-04-17T13:15:39.333Z,517.50
2018-04-17T13:16:39.273Z,500.63
2018-04-17T13:17:39.277Z,489.38